sensor_id;sensor_type;location;lat;lon;timestamp;P1;durP1;ratioP1;P2;durP2;ratioP2
1831;SDS011;1680;48.106;11.708;2023-04-25T00:01:05;2.40;;;2.20;;
1831;SDS011;1680;48.106;11.708;2023-04-25T00:03:34;2.40;;;2.20;;
1831;SDS011;1680;48.106;11.708;2023-04-25T00:06:01;2.60;;;2.43;;
1831;SDS011;1680;48.106;11.708;2023-04-25T00:08:28;2.13;;;2.00;;
1831;SDS011;1680;48.106;11.708;2023-04-25T00:10:57;2.43;;;2.30;;
1831;SDS011;1680;48.106;11.708;2023-04-25T00:13:25;2.20;;;2.10;;
1831;SDS011;1680;48.106;11.708;2023-04-25T00:15:53;2.53;;;2.33;;
1831;SDS011;1680;48.106;11.708;2023-04-25T00:18:23;2.57;;;2.20;;
1831;SDS011;1680;48.106;11.708;2023-04-25T00:20:53;3.20;;;2.17;;
1831;SDS011;1680;48.106;11.708;2023-04-25T00:23:21;2.20;;;2.00;;
1831;SDS011;1680;48.106;11.708;2023-04-25T00:25:49;2.50;;;2.27;;
1831;SDS011;1680;48.106;11.708;2023-04-25T00:28:18;2.80;;;2.50;;
1831;SDS011;1680;48.106;11.708;2023-04-25T00:30:47;2.73;;;2.20;;
1831;SDS011;1680;48.106;11.708;2023-04-25T00:33:15;3.07;;;2.23;;
1831;SDS011;1680;48.106;11.708;2023-04-25T00:35:42;3.70;;;2.00;;
1831;SDS011;1680;48.106;11.708;2023-04-25T00:38:09;4.53;;;2.47;;
1831;SDS011;1680;48.106;11.708;2023-04-25T00:40:37;2.20;;;2.00;;
1831;SDS011;1680;48.106;11.708;2023-04-25T00:43:04;2.27;;;2.13;;
1831;SDS011;1680;48.106;11.708;2023-04-25T00:45:32;2.20;;;1.90;;
1831;SDS011;1680;48.106;11.708;2023-04-25T00:48:06;2.57;;;2.17;;
1831;SDS011;1680;48.106;11.708;2023-04-25T00:50:34;2.10;;;1.90;;
1831;SDS011;1680;48.106;11.708;2023-04-25T00:53:02;1.87;;;1.77;;
1831;SDS011;1680;48.106;11.708;2023-04-25T00:55:29;2.30;;;2.10;;
1831;SDS011;1680;48.106;11.708;2023-04-25T00:57:57;2.60;;;2.00;;
1831;SDS011;1680;48.106;11.708;2023-04-25T01:00:25;2.90;;;2.43;;
1831;SDS011;1680;48.106;11.708;2023-04-25T01:02:56;2.60;;;2.40;;
1831;SDS011;1680;48.106;11.708;2023-04-25T01:05:23;2.40;;;2.20;;
1831;SDS011;1680;48.106;11.708;2023-04-25T01:07:50;2.57;;;2.37;;
1831;SDS011;1680;48.106;11.708;2023-04-25T01:10:18;2.23;;;1.93;;
1831;SDS011;1680;48.106;11.708;2023-04-25T01:12:45;2.70;;;2.50;;
1831;SDS011;1680;48.106;11.708;2023-04-25T01:15:13;2.17;;;2.00;;
1831;SDS011;1680;48.106;11.708;2023-04-25T01:17:40;2.37;;;2.10;;
1831;SDS011;1680;48.106;11.708;2023-04-25T01:20:11;2.10;;;1.90;;
1831;SDS011;1680;48.106;11.708;2023-04-25T01:22:42;2.40;;;2.20;;
1831;SDS011;1680;48.106;11.708;2023-04-25T01:25:09;2.33;;;2.13;;
1831;SDS011;1680;48.106;11.708;2023-04-25T01:27:37;3.47;;;2.07;;
1831;SDS011;1680;48.106;11.708;2023-04-25T01:30:05;2.27;;;1.90;;
1831;SDS011;1680;48.106;11.708;2023-04-25T01:32:33;2.10;;;2.00;;
1831;SDS011;1680;48.106;11.708;2023-04-25T01:35:03;2.20;;;2.00;;
1831;SDS011;1680;48.106;11.708;2023-04-25T01:37:34;2.17;;;2.07;;
1831;SDS011;1680;48.106;11.708;2023-04-25T01:40:04;2.37;;;2.10;;
1831;SDS011;1680;48.106;11.708;2023-04-25T01:42:32;2.40;;;2.20;;
1831;SDS011;1680;48.106;11.708;2023-04-25T01:45:00;2.53;;;2.33;;
1831;SDS011;1680;48.106;11.708;2023-04-25T01:47:27;2.80;;;2.17;;
1831;SDS011;1680;48.106;11.708;2023-04-25T01:49:55;4.20;;;2.43;;
1831;SDS011;1680;48.106;11.708;2023-04-25T01:52:22;3.70;;;2.53;;
1831;SDS011;1680;48.106;11.708;2023-04-25T01:54:49;2.23;;;2.13;;
1831;SDS011;1680;48.106;11.708;2023-04-25T01:57:19;2.30;;;2.10;;
1831;SDS011;1680;48.106;11.708;2023-04-25T01:59:46;2.40;;;2.20;;
1831;SDS011;1680;48.106;11.708;2023-04-25T02:02:14;4.80;;;2.30;;
1831;SDS011;1680;48.106;11.708;2023-04-25T02:04:41;2.60;;;2.40;;
1831;SDS011;1680;48.106;11.708;2023-04-25T02:07:08;2.67;;;2.47;;
1831;SDS011;1680;48.106;11.708;2023-04-25T02:09:35;2.57;;;2.30;;
1831;SDS011;1680;48.106;11.708;2023-04-25T02:12:02;2.70;;;2.37;;
1831;SDS011;1680;48.106;11.708;2023-04-25T02:14:31;3.33;;;2.47;;
1831;SDS011;1680;48.106;11.708;2023-04-25T02:17:01;2.43;;;2.23;;
1831;SDS011;1680;48.106;11.708;2023-04-25T02:19:29;2.40;;;2.20;;
1831;SDS011;1680;48.106;11.708;2023-04-25T02:21:56;2.37;;;2.17;;
1831;SDS011;1680;48.106;11.708;2023-04-25T02:24:23;2.40;;;2.30;;
1831;SDS011;1680;48.106;11.708;2023-04-25T02:26:53;5.00;;;2.30;;
1831;SDS011;1680;48.106;11.708;2023-04-25T02:29:20;2.93;;;2.30;;
1831;SDS011;1680;48.106;11.708;2023-04-25T02:31:52;4.13;;;2.50;;
1831;SDS011;1680;48.106;11.708;2023-04-25T02:34:19;2.20;;;2.00;;
1831;SDS011;1680;48.106;11.708;2023-04-25T02:36:47;2.43;;;2.23;;
1831;SDS011;1680;48.106;11.708;2023-04-25T02:39:15;2.53;;;2.10;;
1831;SDS011;1680;48.106;11.708;2023-04-25T02:41:42;2.83;;;2.10;;
1831;SDS011;1680;48.106;11.708;2023-04-25T02:44:09;2.03;;;1.93;;
1831;SDS011;1680;48.106;11.708;2023-04-25T02:46:36;2.27;;;2.07;;
1831;SDS011;1680;48.106;11.708;2023-04-25T02:49:05;2.40;;;2.30;;
1831;SDS011;1680;48.106;11.708;2023-04-25T02:51:32;2.27;;;2.17;;
1831;SDS011;1680;48.106;11.708;2023-04-25T02:53:59;1.90;;;1.80;;
1831;SDS011;1680;48.106;11.708;2023-04-25T02:56:27;2.47;;;2.27;;
1831;SDS011;1680;48.106;11.708;2023-04-25T02:58:54;2.40;;;2.20;;
1831;SDS011;1680;48.106;11.708;2023-04-25T03:01:21;2.93;;;2.30;;
1831;SDS011;1680;48.106;11.708;2023-04-25T03:03:48;2.93;;;2.27;;
1831;SDS011;1680;48.106;11.708;2023-04-25T03:06:17;2.27;;;2.17;;
1831;SDS011;1680;48.106;11.708;2023-04-25T03:08:44;2.13;;;1.93;;
1831;SDS011;1680;48.106;11.708;2023-04-25T03:11:11;2.47;;;2.27;;
1831;SDS011;1680;48.106;11.708;2023-04-25T03:13:38;2.60;;;2.40;;
1831;SDS011;1680;48.106;11.708;2023-04-25T03:16:08;2.30;;;2.20;;
1831;SDS011;1680;48.106;11.708;2023-04-25T03:18:36;2.20;;;2.10;;
1831;SDS011;1680;48.106;11.708;2023-04-25T03:21:03;2.40;;;2.20;;
1831;SDS011;1680;48.106;11.708;2023-04-25T03:23:32;2.73;;;2.53;;
1831;SDS011;1680;48.106;11.708;2023-04-25T03:26:03;3.60;;;2.80;;
1831;SDS011;1680;48.106;11.708;2023-04-25T03:28:30;3.27;;;3.00;;
1831;SDS011;1680;48.106;11.708;2023-04-25T03:30:57;2.70;;;2.40;;
1831;SDS011;1680;48.106;11.708;2023-04-25T03:33:24;2.97;;;2.60;;
1831;SDS011;1680;48.106;11.708;2023-04-25T03:35:51;3.10;;;2.57;;
1831;SDS011;1680;48.106;11.708;2023-04-25T03:38:19;3.47;;;2.63;;
1831;SDS011;1680;48.106;11.708;2023-04-25T03:40:47;3.70;;;2.03;;
1831;SDS011;1680;48.106;11.708;2023-04-25T03:43:15;8.00;;;2.53;;
1831;SDS011;1680;48.106;11.708;2023-04-25T03:45:45;4.30;;;2.50;;
1831;SDS011;1680;48.106;11.708;2023-04-25T03:48:12;2.37;;;2.00;;
1831;SDS011;1680;48.106;11.708;2023-04-25T03:50:39;3.37;;;2.63;;
1831;SDS011;1680;48.106;11.708;2023-04-25T03:53:06;2.43;;;2.23;;
1831;SDS011;1680;48.106;11.708;2023-04-25T03:55:34;2.40;;;2.20;;
1831;SDS011;1680;48.106;11.708;2023-04-25T03:58:02;2.20;;;2.00;;
1831;SDS011;1680;48.106;11.708;2023-04-25T04:00:30;2.10;;;1.90;;
1831;SDS011;1680;48.106;11.708;2023-04-25T04:02:57;2.97;;;2.00;;
1831;SDS011;1680;48.106;11.708;2023-04-25T04:05:24;2.30;;;2.10;;
1831;SDS011;1680;48.106;11.708;2023-04-25T04:07:52;2.13;;;2.03;;
1831;SDS011;1680;48.106;11.708;2023-04-25T04:10:19;3.07;;;2.03;;
1831;SDS011;1680;48.106;11.708;2023-04-25T04:12:46;5.20;;;1.87;;
1831;SDS011;1680;48.106;11.708;2023-04-25T04:15:15;2.87;;;2.00;;
1831;SDS011;1680;48.106;11.708;2023-04-25T04:17:42;2.63;;;2.10;;
1831;SDS011;1680;48.106;11.708;2023-04-25T04:20:09;3.23;;;2.43;;
1831;SDS011;1680;48.106;11.708;2023-04-25T04:22:37;4.93;;;2.03;;
1831;SDS011;1680;48.106;11.708;2023-04-25T04:25:04;2.90;;;2.00;;
1831;SDS011;1680;48.106;11.708;2023-04-25T04:27:36;2.03;;;1.93;;
1831;SDS011;1680;48.106;11.708;2023-04-25T04:30:04;1.77;;;1.67;;
1831;SDS011;1680;48.106;11.708;2023-04-25T04:32:34;2.10;;;1.90;;
1831;SDS011;1680;48.106;11.708;2023-04-25T04:35:05;2.40;;;2.03;;
1831;SDS011;1680;48.106;11.708;2023-04-25T04:37:34;1.93;;;1.83;;
1831;SDS011;1680;48.106;11.708;2023-04-25T04:40:02;1.90;;;1.80;;
1831;SDS011;1680;48.106;11.708;2023-04-25T04:42:30;2.00;;;1.80;;
1831;SDS011;1680;48.106;11.708;2023-04-25T04:44:57;4.43;;;1.73;;
1831;SDS011;1680;48.106;11.708;2023-04-25T04:47:26;2.00;;;1.90;;
1831;SDS011;1680;48.106;11.708;2023-04-25T04:49:57;2.00;;;1.90;;
1831;SDS011;1680;48.106;11.708;2023-04-25T04:52:24;1.70;;;1.60;;
1831;SDS011;1680;48.106;11.708;2023-04-25T04:54:51;2.03;;;1.87;;
1831;SDS011;1680;48.106;11.708;2023-04-25T04:57:18;1.80;;;1.70;;
1831;SDS011;1680;48.106;11.708;2023-04-25T04:59:45;1.90;;;1.80;;
1831;SDS011;1680;48.106;11.708;2023-04-25T05:02:16;2.43;;;1.60;;
1831;SDS011;1680;48.106;11.708;2023-04-25T05:04:43;2.90;;;1.70;;
1831;SDS011;1680;48.106;11.708;2023-04-25T05:07:12;1.80;;;1.50;;
1831;SDS011;1680;48.106;11.708;2023-04-25T05:09:39;2.93;;;2.00;;
1831;SDS011;1680;48.106;11.708;2023-04-25T05:12:07;2.47;;;1.60;;
1831;SDS011;1680;48.106;11.708;2023-04-25T05:14:34;1.90;;;1.80;;
1831;SDS011;1680;48.106;11.708;2023-04-25T05:17:01;6.10;;;2.13;;
1831;SDS011;1680;48.106;11.708;2023-04-25T05:19:29;6.80;;;2.50;;
1831;SDS011;1680;48.106;11.708;2023-04-25T05:21:57;3.10;;;2.20;;
1831;SDS011;1680;48.106;11.708;2023-04-25T05:24:25;4.63;;;2.20;;
1831;SDS011;1680;48.106;11.708;2023-04-25T05:26:55;1.90;;;1.70;;
1831;SDS011;1680;48.106;11.708;2023-04-25T05:29:22;2.40;;;2.00;;
1831;SDS011;1680;48.106;11.708;2023-04-25T05:31:49;2.67;;;1.97;;
1831;SDS011;1680;48.106;11.708;2023-04-25T05:34:16;2.40;;;1.90;;
1831;SDS011;1680;48.106;11.708;2023-04-25T05:36:43;3.60;;;1.97;;
1831;SDS011;1680;48.106;11.708;2023-04-25T05:39:13;2.43;;;2.07;;
1831;SDS011;1680;48.106;11.708;2023-04-25T05:41:42;2.00;;;1.80;;
1831;SDS011;1680;48.106;11.708;2023-04-25T05:44:09;3.40;;;2.47;;
1831;SDS011;1680;48.106;11.708;2023-04-25T05:46:36;3.03;;;2.17;;
1831;SDS011;1680;48.106;11.708;2023-04-25T05:49:03;2.60;;;1.93;;
1831;SDS011;1680;48.106;11.708;2023-04-25T05:51:30;4.83;;;2.60;;
1831;SDS011;1680;48.106;11.708;2023-04-25T05:53:57;2.67;;;2.10;;
1831;SDS011;1680;48.106;11.708;2023-04-25T05:56:24;2.50;;;2.20;;
1831;SDS011;1680;48.106;11.708;2023-04-25T05:58:54;2.30;;;2.10;;
1831;SDS011;1680;48.106;11.708;2023-04-25T06:01:22;2.17;;;1.97;;
1831;SDS011;1680;48.106;11.708;2023-04-25T06:03:49;2.60;;;2.17;;
1831;SDS011;1680;48.106;11.708;2023-04-25T06:06:17;4.57;;;2.43;;
1831;SDS011;1680;48.106;11.708;2023-04-25T06:08:45;6.10;;;3.20;;
1831;SDS011;1680;48.106;11.708;2023-04-25T06:11:12;3.00;;;2.50;;
1831;SDS011;1680;48.106;11.708;2023-04-25T06:13:39;3.00;;;2.20;;
1831;SDS011;1680;48.106;11.708;2023-04-25T06:16:07;2.13;;;2.03;;
1831;SDS011;1680;48.106;11.708;2023-04-25T06:18:35;4.10;;;2.90;;
1831;SDS011;1680;48.106;11.708;2023-04-25T06:21:02;4.23;;;2.30;;
1831;SDS011;1680;48.106;11.708;2023-04-25T06:23:30;3.23;;;2.93;;
1831;SDS011;1680;48.106;11.708;2023-04-25T06:25:57;2.80;;;2.20;;
1831;SDS011;1680;48.106;11.708;2023-04-25T06:28:25;2.97;;;2.10;;
1831;SDS011;1680;48.106;11.708;2023-04-25T06:30:53;1.80;;;1.70;;
1831;SDS011;1680;48.106;11.708;2023-04-25T06:33:21;2.67;;;1.73;;
1831;SDS011;1680;48.106;11.708;2023-04-25T06:35:51;2.27;;;2.07;;
1831;SDS011;1680;48.106;11.708;2023-04-25T06:38:18;2.10;;;1.90;;
1831;SDS011;1680;48.106;11.708;2023-04-25T06:40:45;2.23;;;2.03;;
1831;SDS011;1680;48.106;11.708;2023-04-25T06:43:12;2.67;;;2.20;;
1831;SDS011;1680;48.106;11.708;2023-04-25T06:45:39;1.93;;;1.77;;
1831;SDS011;1680;48.106;11.708;2023-04-25T06:48:07;2.50;;;2.03;;
1831;SDS011;1680;48.106;11.708;2023-04-25T06:50:35;2.60;;;2.40;;
1831;SDS011;1680;48.106;11.708;2023-04-25T06:53:03;3.43;;;1.83;;
1831;SDS011;1680;48.106;11.708;2023-04-25T06:55:30;2.50;;;2.30;;
1831;SDS011;1680;48.106;11.708;2023-04-25T06:57:57;2.53;;;2.20;;
1831;SDS011;1680;48.106;11.708;2023-04-25T07:00:25;2.43;;;2.23;;
1831;SDS011;1680;48.106;11.708;2023-04-25T07:02:53;2.80;;;2.30;;
1831;SDS011;1680;48.106;11.708;2023-04-25T07:05:20;3.10;;;2.30;;
1831;SDS011;1680;48.106;11.708;2023-04-25T07:07:49;3.13;;;2.77;;
1831;SDS011;1680;48.106;11.708;2023-04-25T07:10:16;3.17;;;2.70;;
1831;SDS011;1680;48.106;11.708;2023-04-25T07:12:43;4.00;;;2.70;;
1831;SDS011;1680;48.106;11.708;2023-04-25T07:15:10;3.07;;;2.77;;
1831;SDS011;1680;48.106;11.708;2023-04-25T07:17:37;3.80;;;3.07;;
1831;SDS011;1680;48.106;11.708;2023-04-25T07:20:05;5.67;;;3.00;;
1831;SDS011;1680;48.106;11.708;2023-04-25T07:22:34;2.80;;;2.60;;
1831;SDS011;1680;48.106;11.708;2023-04-25T07:25:03;5.30;;;3.00;;
1831;SDS011;1680;48.106;11.708;2023-04-25T07:27:31;2.60;;;2.40;;
1831;SDS011;1680;48.106;11.708;2023-04-25T07:30:00;4.83;;;2.60;;
1831;SDS011;1680;48.106;11.708;2023-04-25T07:32:27;2.60;;;2.40;;
1831;SDS011;1680;48.106;11.708;2023-04-25T07:34:54;3.13;;;2.50;;
1831;SDS011;1680;48.106;11.708;2023-04-25T07:37:22;3.40;;;2.30;;
1831;SDS011;1680;48.106;11.708;2023-04-25T07:39:50;2.97;;;2.67;;
1831;SDS011;1680;48.106;11.708;2023-04-25T07:42:19;2.57;;;2.37;;
1831;SDS011;1680;48.106;11.708;2023-04-25T07:44:46;2.90;;;2.60;;
1831;SDS011;1680;48.106;11.708;2023-04-25T07:47:13;2.87;;;2.50;;
1831;SDS011;1680;48.106;11.708;2023-04-25T07:49:40;3.40;;;2.40;;
1831;SDS011;1680;48.106;11.708;2023-04-25T07:52:07;4.00;;;2.40;;
1831;SDS011;1680;48.106;11.708;2023-04-25T07:54:34;4.40;;;3.23;;
1831;SDS011;1680;48.106;11.708;2023-04-25T07:57:01;3.30;;;2.73;;
1831;SDS011;1680;48.106;11.708;2023-04-25T07:59:30;3.10;;;2.13;;
1831;SDS011;1680;48.106;11.708;2023-04-25T08:01:57;4.23;;;2.40;;
1831;SDS011;1680;48.106;11.708;2023-04-25T08:04:24;2.73;;;2.43;;
1831;SDS011;1680;48.106;11.708;2023-04-25T08:06:52;3.67;;;2.80;;
1831;SDS011;1680;48.106;11.708;2023-04-25T08:09:19;3.40;;;3.10;;
1831;SDS011;1680;48.106;11.708;2023-04-25T08:11:47;3.10;;;2.50;;
1831;SDS011;1680;48.106;11.708;2023-04-25T08:14:14;3.33;;;2.70;;
1831;SDS011;1680;48.106;11.708;2023-04-25T08:16:43;3.97;;;2.80;;
1831;SDS011;1680;48.106;11.708;2023-04-25T08:19:10;3.57;;;2.77;;
1831;SDS011;1680;48.106;11.708;2023-04-25T08:21:37;2.70;;;2.40;;
1831;SDS011;1680;48.106;11.708;2023-04-25T08:24:05;2.57;;;2.37;;
1831;SDS011;1680;48.106;11.708;2023-04-25T08:26:32;5.60;;;3.10;;
1831;SDS011;1680;48.106;11.708;2023-04-25T08:29:02;3.67;;;2.90;;
1831;SDS011;1680;48.106;11.708;2023-04-25T08:31:30;3.00;;;2.80;;
1831;SDS011;1680;48.106;11.708;2023-04-25T08:33:59;3.10;;;2.70;;
1831;SDS011;1680;48.106;11.708;2023-04-25T08:36:26;3.23;;;2.50;;
1831;SDS011;1680;48.106;11.708;2023-04-25T08:38:54;4.23;;;2.57;;
1831;SDS011;1680;48.106;11.708;2023-04-25T08:41:21;2.90;;;2.70;;
1831;SDS011;1680;48.106;11.708;2023-04-25T08:43:48;4.00;;;3.20;;
1831;SDS011;1680;48.106;11.708;2023-04-25T08:46:17;3.40;;;2.50;;
1831;SDS011;1680;48.106;11.708;2023-04-25T08:48:45;3.70;;;2.90;;
1831;SDS011;1680;48.106;11.708;2023-04-25T08:51:15;2.97;;;2.77;;
1831;SDS011;1680;48.106;11.708;2023-04-25T08:53:50;3.30;;;2.97;;
1831;SDS011;1680;48.106;11.708;2023-04-25T08:56:18;4.80;;;2.97;;
1831;SDS011;1680;48.106;11.708;2023-04-25T08:58:50;5.00;;;3.03;;
1831;SDS011;1680;48.106;11.708;2023-04-25T09:01:18;5.37;;;3.13;;
1831;SDS011;1680;48.106;11.708;2023-04-25T09:03:46;3.30;;;2.33;;
1831;SDS011;1680;48.106;11.708;2023-04-25T09:06:15;6.90;;;2.50;;
1831;SDS011;1680;48.106;11.708;2023-04-25T09:08:44;3.30;;;2.97;;
1831;SDS011;1680;48.106;11.708;2023-04-25T09:11:12;2.90;;;2.60;;
1831;SDS011;1680;48.106;11.708;2023-04-25T09:13:39;3.00;;;2.30;;
1831;SDS011;1680;48.106;11.708;2023-04-25T09:16:06;4.77;;;2.77;;
1831;SDS011;1680;48.106;11.708;2023-04-25T09:18:34;2.90;;;2.27;;
1831;SDS011;1680;48.106;11.708;2023-04-25T09:21:04;4.50;;;2.40;;
1831;SDS011;1680;48.106;11.708;2023-04-25T09:23:39;2.67;;;2.47;;
1831;SDS011;1680;48.106;11.708;2023-04-25T09:26:08;2.40;;;2.20;;
1831;SDS011;1680;48.106;11.708;2023-04-25T09:28:35;4.90;;;2.10;;
1831;SDS011;1680;48.106;11.708;2023-04-25T09:31:03;2.47;;;2.23;;
1831;SDS011;1680;48.106;11.708;2023-04-25T09:33:31;2.30;;;2.10;;
1831;SDS011;1680;48.106;11.708;2023-04-25T09:36:04;2.30;;;2.10;;
1831;SDS011;1680;48.106;11.708;2023-04-25T09:38:32;2.63;;;2.17;;
1831;SDS011;1680;48.106;11.708;2023-04-25T09:41:09;3.27;;;1.90;;
1831;SDS011;1680;48.106;11.708;2023-04-25T09:43:37;2.53;;;2.17;;
1831;SDS011;1680;48.106;11.708;2023-04-25T09:46:07;2.10;;;2.00;;
1831;SDS011;1680;48.106;11.708;2023-04-25T09:48:36;2.40;;;2.10;;
1831;SDS011;1680;48.106;11.708;2023-04-25T09:51:03;2.40;;;2.10;;
1831;SDS011;1680;48.106;11.708;2023-04-25T09:53:32;3.70;;;2.07;;
1831;SDS011;1680;48.106;11.708;2023-04-25T09:56:00;3.23;;;2.13;;
1831;SDS011;1680;48.106;11.708;2023-04-25T09:58:31;2.50;;;2.10;;
1831;SDS011;1680;48.106;11.708;2023-04-25T10:00:59;2.50;;;2.07;;
1831;SDS011;1680;48.106;11.708;2023-04-25T10:03:29;2.77;;;2.20;;
1831;SDS011;1680;48.106;11.708;2023-04-25T10:05:58;3.17;;;2.37;;
1831;SDS011;1680;48.106;11.708;2023-04-25T10:08:29;2.17;;;1.97;;
1831;SDS011;1680;48.106;11.708;2023-04-25T10:11:01;2.90;;;2.23;;
1831;SDS011;1680;48.106;11.708;2023-04-25T10:13:30;2.60;;;2.20;;
1831;SDS011;1680;48.106;11.708;2023-04-25T10:15:58;2.60;;;2.40;;
1831;SDS011;1680;48.106;11.708;2023-04-25T10:18:25;2.80;;;2.20;;
1831;SDS011;1680;48.106;11.708;2023-04-25T10:20:53;2.97;;;2.07;;
1831;SDS011;1680;48.106;11.708;2023-04-25T10:23:21;3.33;;;2.60;;
1831;SDS011;1680;48.106;11.708;2023-04-25T10:25:49;3.40;;;2.40;;
1831;SDS011;1680;48.106;11.708;2023-04-25T10:28:19;2.97;;;2.27;;
1831;SDS011;1680;48.106;11.708;2023-04-25T10:31:00;3.37;;;2.23;;
1831;SDS011;1680;48.106;11.708;2023-04-25T10:33:29;3.17;;;2.13;;
1831;SDS011;1680;48.106;11.708;2023-04-25T10:36:08;2.10;;;1.90;;
1831;SDS011;1680;48.106;11.708;2023-04-25T10:38:35;2.17;;;1.97;;
1831;SDS011;1680;48.106;11.708;2023-04-25T10:41:03;2.50;;;2.20;;
1831;SDS011;1680;48.106;11.708;2023-04-25T10:43:35;2.80;;;2.60;;
1831;SDS011;1680;48.106;11.708;2023-04-25T10:46:15;4.43;;;1.97;;
1831;SDS011;1680;48.106;11.708;2023-04-25T10:48:44;2.40;;;2.20;;
1831;SDS011;1680;48.106;11.708;2023-04-25T10:51:17;2.50;;;1.90;;
1831;SDS011;1680;48.106;11.708;2023-04-25T10:53:58;2.37;;;2.17;;
1831;SDS011;1680;48.106;11.708;2023-04-25T10:56:26;2.40;;;2.20;;
1831;SDS011;1680;48.106;11.708;2023-04-25T10:59:06;2.40;;;2.17;;
1831;SDS011;1680;48.106;11.708;2023-04-25T11:01:35;4.10;;;2.80;;
1831;SDS011;1680;48.106;11.708;2023-04-25T11:04:04;5.50;;;2.50;;
1831;SDS011;1680;48.106;11.708;2023-04-25T11:06:34;3.50;;;2.70;;
1831;SDS011;1680;48.106;11.708;2023-04-25T11:09:10;4.37;;;2.17;;
1831;SDS011;1680;48.106;11.708;2023-04-25T11:11:39;4.43;;;2.67;;
1831;SDS011;1680;48.106;11.708;2023-04-25T11:14:07;2.50;;;2.30;;
1831;SDS011;1680;48.106;11.708;2023-04-25T11:16:34;3.37;;;2.20;;
1831;SDS011;1680;48.106;11.708;2023-04-25T11:19:02;2.60;;;2.40;;
1831;SDS011;1680;48.106;11.708;2023-04-25T11:21:30;2.10;;;1.90;;
1831;SDS011;1680;48.106;11.708;2023-04-25T11:23:58;2.80;;;2.60;;
1831;SDS011;1680;48.106;11.708;2023-04-25T11:26:26;2.43;;;2.23;;
1831;SDS011;1680;48.106;11.708;2023-04-25T11:28:56;3.03;;;2.53;;
1831;SDS011;1680;48.106;11.708;2023-04-25T11:31:26;2.37;;;2.17;;
1831;SDS011;1680;48.106;11.708;2023-04-25T11:33:54;3.23;;;2.70;;
1831;SDS011;1680;48.106;11.708;2023-04-25T11:36:23;4.13;;;1.83;;
1831;SDS011;1680;48.106;11.708;2023-04-25T11:38:51;1.97;;;1.87;;
1831;SDS011;1680;48.106;11.708;2023-04-25T11:41:18;1.77;;;1.67;;
1831;SDS011;1680;48.106;11.708;2023-04-25T11:43:47;1.93;;;1.80;;
1831;SDS011;1680;48.106;11.708;2023-04-25T11:46:15;2.13;;;1.93;;
1831;SDS011;1680;48.106;11.708;2023-04-25T11:48:43;2.67;;;1.73;;
1831;SDS011;1680;48.106;11.708;2023-04-25T11:51:11;3.50;;;2.20;;
1831;SDS011;1680;48.106;11.708;2023-04-25T11:53:40;2.10;;;2.00;;
1831;SDS011;1680;48.106;11.708;2023-04-25T11:56:09;2.23;;;1.87;;
1831;SDS011;1680;48.106;11.708;2023-04-25T12:01:27;2.17;;;2.00;;
1831;SDS011;1680;48.106;11.708;2023-04-25T12:03:57;3.10;;;2.33;;
1831;SDS011;1680;48.106;11.708;2023-04-25T12:06:28;2.07;;;1.87;;
1831;SDS011;1680;48.106;11.708;2023-04-25T12:08:58;2.10;;;1.80;;
1831;SDS011;1680;48.106;11.708;2023-04-25T12:11:26;2.50;;;2.03;;
1831;SDS011;1680;48.106;11.708;2023-04-25T12:13:54;1.93;;;1.80;;
1831;SDS011;1680;48.106;11.708;2023-04-25T12:16:21;2.67;;;1.90;;
1831;SDS011;1680;48.106;11.708;2023-04-25T12:18:49;1.90;;;1.80;;
1831;SDS011;1680;48.106;11.708;2023-04-25T12:21:21;1.63;;;1.53;;
1831;SDS011;1680;48.106;11.708;2023-04-25T12:23:48;2.50;;;1.20;;
1831;SDS011;1680;48.106;11.708;2023-04-25T12:26:16;1.77;;;1.60;;
1831;SDS011;1680;48.106;11.708;2023-04-25T12:28:45;2.23;;;2.10;;
1831;SDS011;1680;48.106;11.708;2023-04-25T12:31:13;2.00;;;1.70;;
1831;SDS011;1680;48.106;11.708;2023-04-25T12:33:41;1.67;;;1.50;;
1831;SDS011;1680;48.106;11.708;2023-04-25T12:36:12;1.73;;;1.40;;
1831;SDS011;1680;48.106;11.708;2023-04-25T12:38:43;1.70;;;1.60;;
1831;SDS011;1680;48.106;11.708;2023-04-25T12:41:10;1.87;;;1.77;;
1831;SDS011;1680;48.106;11.708;2023-04-25T12:43:37;1.70;;;1.60;;
1831;SDS011;1680;48.106;11.708;2023-04-25T12:46:04;1.97;;;1.50;;
1831;SDS011;1680;48.106;11.708;2023-04-25T12:48:31;1.93;;;1.50;;
1831;SDS011;1680;48.106;11.708;2023-04-25T12:50:59;1.30;;;1.20;;
1831;SDS011;1680;48.106;11.708;2023-04-25T12:53:26;2.10;;;1.27;;
1831;SDS011;1680;48.106;11.708;2023-04-25T12:55:54;1.50;;;1.40;;
1831;SDS011;1680;48.106;11.708;2023-04-25T12:58:22;1.27;;;1.17;;
1831;SDS011;1680;48.106;11.708;2023-04-25T13:00:50;1.70;;;1.60;;
1831;SDS011;1680;48.106;11.708;2023-04-25T13:03:17;1.57;;;1.47;;
1831;SDS011;1680;48.106;11.708;2023-04-25T13:05:44;1.07;;;0.97;;
1831;SDS011;1680;48.106;11.708;2023-04-25T13:08:11;1.47;;;1.37;;
1831;SDS011;1680;48.106;11.708;2023-04-25T13:10:38;1.53;;;1.43;;
1831;SDS011;1680;48.106;11.708;2023-04-25T13:13:06;2.73;;;1.80;;
1831;SDS011;1680;48.106;11.708;2023-04-25T13:15:34;2.70;;;1.40;;
1831;SDS011;1680;48.106;11.708;2023-04-25T13:18:01;1.37;;;1.27;;
1831;SDS011;1680;48.106;11.708;2023-04-25T13:20:30;1.50;;;1.40;;
1831;SDS011;1680;48.106;11.708;2023-04-25T13:22:57;2.53;;;2.33;;
1831;SDS011;1680;48.106;11.708;2023-04-25T13:25:24;3.13;;;2.50;;
1831;SDS011;1680;48.106;11.708;2023-04-25T13:27:52;1.77;;;1.30;;
1831;SDS011;1680;48.106;11.708;2023-04-25T13:30:20;1.00;;;1.00;;
1831;SDS011;1680;48.106;11.708;2023-04-25T13:32:47;1.33;;;1.27;;
1831;SDS011;1680;48.106;11.708;2023-04-25T13:35:16;1.30;;;1.20;;
1831;SDS011;1680;48.106;11.708;2023-04-25T13:37:43;1.27;;;1.17;;
1831;SDS011;1680;48.106;11.708;2023-04-25T13:40:10;2.20;;;2.00;;
1831;SDS011;1680;48.106;11.708;2023-04-25T13:42:38;2.50;;;1.63;;
1831;SDS011;1680;48.106;11.708;2023-04-25T13:45:06;1.73;;;1.60;;
1831;SDS011;1680;48.106;11.708;2023-04-25T13:47:35;1.67;;;1.47;;
1831;SDS011;1680;48.106;11.708;2023-04-25T13:50:02;1.50;;;1.40;;
1831;SDS011;1680;48.106;11.708;2023-04-25T13:52:30;2.60;;;2.40;;
1831;SDS011;1680;48.106;11.708;2023-04-25T13:54:57;1.80;;;1.63;;
1831;SDS011;1680;48.106;11.708;2023-04-25T13:57:26;2.60;;;2.40;;
1831;SDS011;1680;48.106;11.708;2023-04-25T13:59:53;2.20;;;2.00;;
1831;SDS011;1680;48.106;11.708;2023-04-25T14:02:20;1.87;;;1.77;;
1831;SDS011;1680;48.106;11.708;2023-04-25T14:04:48;2.40;;;2.20;;
1831;SDS011;1680;48.106;11.708;2023-04-25T14:07:16;1.97;;;1.77;;
1831;SDS011;1680;48.106;11.708;2023-04-25T14:09:43;2.90;;;2.60;;
1831;SDS011;1680;48.106;11.708;2023-04-25T14:12:10;3.17;;;2.87;;
1831;SDS011;1680;48.106;11.708;2023-04-25T14:14:37;2.97;;;2.70;;
1831;SDS011;1680;48.106;11.708;2023-04-25T14:17:04;2.00;;;1.90;;
1831;SDS011;1680;48.106;11.708;2023-04-25T14:19:31;2.57;;;1.80;;
1831;SDS011;1680;48.106;11.708;2023-04-25T14:22:00;1.70;;;1.60;;
1831;SDS011;1680;48.106;11.708;2023-04-25T14:24:27;1.13;;;1.07;;
1831;SDS011;1680;48.106;11.708;2023-04-25T14:26:54;1.60;;;1.50;;
1831;SDS011;1680;48.106;11.708;2023-04-25T14:29:22;1.70;;;1.60;;
1831;SDS011;1680;48.106;11.708;2023-04-25T14:31:49;1.37;;;1.27;;
1831;SDS011;1680;48.106;11.708;2023-04-25T14:34:16;1.40;;;1.30;;
1831;SDS011;1680;48.106;11.708;2023-04-25T14:36:43;1.60;;;1.50;;
1831;SDS011;1680;48.106;11.708;2023-04-25T14:39:12;1.50;;;1.40;;
1831;SDS011;1680;48.106;11.708;2023-04-25T14:41:40;1.90;;;1.80;;
1831;SDS011;1680;48.106;11.708;2023-04-25T14:44:07;2.00;;;1.90;;
1831;SDS011;1680;48.106;11.708;2023-04-25T14:46:34;1.70;;;1.60;;
1831;SDS011;1680;48.106;11.708;2023-04-25T14:49:03;1.67;;;1.57;;
1831;SDS011;1680;48.106;11.708;2023-04-25T14:51:31;1.67;;;1.50;;
1831;SDS011;1680;48.106;11.708;2023-04-25T14:53:58;1.40;;;1.30;;
1831;SDS011;1680;48.106;11.708;2023-04-25T14:56:27;1.50;;;1.40;;
1831;SDS011;1680;48.106;11.708;2023-04-25T14:58:54;1.30;;;1.20;;
1831;SDS011;1680;48.106;11.708;2023-04-25T15:01:22;1.40;;;1.30;;
1831;SDS011;1680;48.106;11.708;2023-04-25T15:03:49;1.60;;;1.50;;
1831;SDS011;1680;48.106;11.708;2023-04-25T15:06:17;2.70;;;1.50;;
1831;SDS011;1680;48.106;11.708;2023-04-25T15:08:44;2.27;;;1.43;;